Aeroporto :
LOGIN :

Iscrizione | Disclaimer

   EN    FR    IT 

 










Sommario :    VFR   VFR Marginale   IFR   IFR Intensivo   IFR Molto Intensivo
Visibilità : 
Base nubi : 
>= 8 km
>= 3000ft
5 / 8 km
1000 / 3000 ft
1500m / 5 km
500 / 1000 ft
800 / 1500m
200 / 500 ft
< 800m
< 200 ft
Simboli :   Temporali  Nebbia  Neve Forte  Precipitazioni Forti  Vento > 20 kt
SIGMETs :   Varie  Temporali  Ghiacco  Turbolenza  Onda orograficha  Ceneri Vulcaniche






- Altitudine del aeroporto : 392 ft
- Codice IATA : CDG


LFPG - Paris-Aeroport Charles De Gaulle

ULTIMO METAR :
  • 302300Z 23010KT 4000 -RA FEW007 BKN009 06/05 Q1020 TEMPO BKN007

METARs OBSOLETI :
  • 302230Z 23009KT 4500 -RA BKN009 05/04 Q1021 TEMPO BKN009
  • 302200Z 21007KT 4500 -RA BKN010 05/03 Q1021 TEMPO BKN009
  • 302130Z 23010KT 7000 -RA BKN010 06/02 Q1021 TEMPO BKN009
  • 302100Z 22011KT 7000 BKN011 BKN080 06/02 Q1022 TEMPO BKN009
  • 302030Z 20010KT 7000 BKN012 BKN090 05/01 Q1022 NOSIG

TAF TAF LFPG
Valido dal 30 a 18 ore il 02 a 00 ore UTC


301700Z 3018/0124 21008KT 8000 NSC TX08/0103Z TN04/0108Z
BECMG 3018/3020 BKN012
TEMPO 3020/0103 4000 -RA OVC007
BECMG 0101/0103 34010G20KT
BECMG 0103/0106 SCT020
PROB40
TEMPO 0111/0117 34015G30KT 4000 -SHRA BKN020TCU
ATIS : +33 1 48 62 10 92



MetMap, La meteo Aeronautica in un colpo d'occhio ! - Copyright ORBIFLY Dicembre 2007 - Disclaimer

ORBIFLY MET'MAP TEAM :

Programmazione e sviluppo : Alexandra Zaïnal
Concezione : Baudouin d'Aumeries
Aiuto per la programmazione : Marc-Olivier Méhu
Supporto tecnico e logistico : Manuel Goepfert
Aiuto per la traduzione : Arnaldo La Scala

Contatto : metmap@orbifly.com




FONTI E CREDITI :

   NOAA